createdAt,value
2022-09-23T00:00:49.961Z,14.97
2022-09-23T00:06:03.929Z,15.01
2022-09-23T00:11:12.439Z,14.27
2022-09-23T00:16:17.844Z,13.53
2022-09-23T00:21:22.025Z,14.50
2022-09-23T00:26:24.785Z,14.00
2022-09-23T00:31:27.840Z,13.44
2022-09-23T00:36:32.663Z,12.68
2022-09-23T00:41:35.819Z,13.72
2022-09-23T00:46:44.183Z,13.97
2022-09-23T00:51:55.007Z,13.01
2022-09-23T00:57:00.361Z,13.14
2022-09-23T01:02:03.820Z,14.48
2022-09-23T01:07:06.457Z,14.37
2022-09-23T01:12:30.275Z,14.28
2022-09-23T01:17:41.342Z,14.20
2022-09-23T01:23:12.559Z,14.12
2022-09-23T01:28:34.127Z,13.88
2022-09-23T01:33:48.077Z,13.60
2022-09-23T01:39:22.881Z,13.79
2022-09-23T01:45:07.649Z,13.80
2022-09-23T01:50:40.417Z,13.49
2022-09-23T01:55:49.674Z,13.70
2022-09-23T02:01:07.812Z,13.41
2022-09-23T02:06:36.377Z,13.75
2022-09-23T02:11:43.254Z,13.60
2022-09-23T02:16:49.240Z,13.14
2022-09-23T02:21:59.750Z,12.97
2022-09-23T02:27:30.831Z,13.36
2022-09-23T02:32:53.861Z,13.60
2022-09-23T02:38:20.757Z,13.45
2022-09-23T02:43:34.464Z,13.18
2022-09-23T02:48:42.224Z,12.80
2022-09-23T02:53:46.333Z,13.21
2022-09-23T02:58:54.832Z,13.37
2022-09-23T03:04:18.864Z,13.56
2022-09-23T03:09:37.378Z,13.60
2022-09-23T03:15:04.476Z,13.39
2022-09-23T03:20:21.372Z,13.20
2022-09-23T03:25:26.622Z,13.28
2022-09-23T03:30:30.547Z,13.58
2022-09-23T03:35:56.228Z,13.31
2022-09-23T03:41:03.428Z,13.46
2022-09-23T03:46:07.619Z,13.28
2022-09-23T03:51:22.616Z,13.26
2022-09-23T03:56:25.100Z,13.10
2022-09-23T04:01:27.522Z,13.04
2022-09-23T04:06:29.894Z,12.84
2022-09-23T04:11:32.283Z,12.42
2022-09-23T04:16:34.725Z,13.06
2022-09-23T04:21:37.429Z,12.86
2022-09-23T04:26:40.715Z,11.76
2022-09-23T04:31:43.258Z,12.47
2022-09-23T04:36:47.139Z,12.15
2022-09-23T04:41:49.589Z,12.36
2022-09-23T04:46:52.246Z,12.40
2022-09-23T04:51:54.814Z,12.32
2022-09-23T04:56:57.247Z,12.70
2022-09-23T05:01:59.792Z,12.01
2022-09-23T05:07:03.517Z,12.97
2022-09-23T05:12:06.554Z,12.86
2022-09-23T05:17:15.054Z,12.41
2022-09-23T05:22:17.374Z,13.10
2022-09-23T05:27:20.846Z,12.57
2022-09-23T05:32:23.414Z,13.65
2022-09-23T05:37:26.237Z,12.79
2022-09-23T05:42:29.089Z,13.92
2022-09-23T05:47:31.378Z,14.10
2022-09-23T05:52:35.324Z,13.99
2022-09-23T05:57:37.873Z,14.23
2022-09-23T06:02:40.505Z,14.29
2022-09-23T06:07:42.921Z,14.55
2022-09-23T06:12:45.546Z,14.69
2022-09-23T06:17:51.138Z,14.95
2022-09-23T06:22:55.616Z,14.14
2022-09-23T06:27:59.715Z,15.08
2022-09-23T06:33:02.446Z,14.96
2022-09-23T06:38:07.607Z,15.38
2022-09-23T06:43:10.014Z,14.99
2022-09-23T06:48:12.624Z,15.67
2022-09-23T06:53:14.942Z,15.86
2022-09-23T06:58:17.205Z,15.74
2022-09-23T07:03:19.535Z,15.85
2022-09-23T07:08:21.919Z,16.13
2022-09-23T07:13:24.737Z,16.39
2022-09-23T07:18:27.922Z,16.00
2022-09-23T07:23:30.233Z,16.92
2022-09-23T07:28:32.764Z,16.96
2022-09-23T07:33:45.071Z,16.51
2022-09-23T07:38:48.001Z,17.14
2022-09-23T07:43:51.102Z,17.35
2022-09-23T07:48:53.894Z,17.74
2022-09-23T07:53:57.205Z,17.98
2022-09-23T07:59:04.291Z,18.14
2022-09-23T08:04:13.662Z,18.02
2022-09-23T08:09:17.884Z,18.42
2022-09-23T08:14:20.309Z,18.58
2022-09-23T08:19:22.587Z,18.88
2022-09-23T08:24:26.999Z,19.13
2022-09-23T08:29:29.409Z,19.42
2022-09-23T08:34:31.742Z,18.99
2022-09-23T08:39:34.018Z,19.55
2022-09-23T08:45:29.680Z,19.67
2022-09-23T08:50:47.078Z,19.91
2022-09-23T08:55:52.386Z,19.80
2022-09-23T09:01:19.933Z,20.01
2022-09-23T09:06:27.089Z,20.26
2022-09-23T09:11:39.539Z,20.31
2022-09-23T09:17:00.126Z,20.33
2022-09-23T09:22:09.848Z,20.35
2022-09-23T09:27:13.793Z,20.02
2022-09-23T09:32:36.788Z,19.84
2022-09-23T09:37:50.043Z,19.88
2022-09-23T09:42:52.521Z,20.44
2022-09-23T09:48:04.040Z,19.87
2022-09-23T09:53:22.357Z,20.45
2022-09-23T09:58:42.130Z,20.40
2022-09-23T10:03:49.460Z,20.54
2022-09-23T10:09:12.828Z,20.72
2022-09-23T10:14:18.643Z,20.79
2022-09-23T10:19:27.877Z,20.96
2022-09-23T10:24:32.742Z,20.97
2022-09-23T10:29:47.243Z,21.15
2022-09-23T10:34:57.603Z,21.28
2022-09-23T10:40:20.360Z,20.58
2022-09-23T10:45:46.437Z,20.68
2022-09-23T10:50:54.832Z,21.43
2022-09-23T10:56:21.021Z,21.53
2022-09-23T11:01:41.363Z,21.83
2022-09-23T11:07:07.853Z,22.20
2022-09-23T11:12:38.683Z,21.83
2022-09-23T11:17:49.757Z,22.34
2022-09-23T11:23:00.825Z,22.48
2022-09-23T11:28:20.845Z,22.39
2022-09-23T11:33:41.144Z,22.69
2022-09-23T11:38:47.169Z,22.58
2022-09-23T11:43:56.586Z,22.71
2022-09-23T11:49:07.921Z,22.69
2022-09-23T11:54:20.689Z,22.84
2022-09-23T11:59:41.422Z,23.16
2022-09-23T12:04:56.912Z,23.33
2022-09-23T12:10:06.018Z,23.48
2022-09-23T12:15:32.544Z,23.60
2022-09-23T12:21:03.767Z,23.80
2022-09-23T12:26:10.142Z,23.93
2022-09-23T12:31:16.067Z,23.72
2022-09-23T12:36:27.509Z,23.27
2022-09-23T12:41:38.011Z,23.77
2022-09-23T12:46:45.081Z,23.63
2022-09-23T12:52:26.456Z,24.22
2022-09-23T12:57:35.180Z,24.44
2022-09-23T13:02:45.001Z,24.42
2022-09-23T13:07:49.390Z,24.63
2022-09-23T13:12:53.497Z,24.89
2022-09-23T13:18:23.595Z,25.17
2022-09-23T13:23:33.462Z,24.41
2022-09-23T13:28:57.268Z,24.15
2022-09-23T13:34:08.538Z,24.46
2022-09-23T13:39:17.323Z,24.83
2022-09-23T13:44:24.061Z,25.14
2022-09-23T13:49:34.533Z,25.54
2022-09-23T13:54:59.784Z,25.82
2022-09-23T14:00:24.433Z,25.58
2022-09-23T14:05:38.970Z,26.54
2022-09-23T14:10:50.078Z,26.04
2022-09-23T14:15:55.927Z,26.77
2022-09-23T14:20:58.396Z,26.56
2022-09-23T14:26:03.218Z,27.50
2022-09-23T14:31:06.023Z,27.54
2022-09-23T14:36:38.150Z,27.07
2022-09-23T14:41:49.766Z,27.92
2022-09-23T14:47:01.034Z,28.19
2022-09-23T14:52:07.455Z,28.20
2022-09-23T14:57:31.926Z,27.88
2022-09-23T15:08:45.256Z,26.58
2022-09-23T15:13:52.449Z,26.57
2022-09-23T15:19:01.294Z,26.17
2022-09-23T15:24:03.728Z,26.35
2022-09-23T15:29:10.223Z,26.47
2022-09-23T15:34:12.728Z,26.15
2022-09-23T15:39:15.453Z,26.19
2022-09-23T15:44:29.951Z,26.08
2022-09-23T15:49:47.513Z,25.82
2022-09-23T15:54:50.145Z,25.33
2022-09-23T15:59:58.866Z,24.65
2022-09-23T16:05:08.365Z,24.06
2022-09-23T16:10:15.352Z,23.54
2022-09-23T16:15:21.453Z,22.21
2022-09-23T16:20:24.379Z,21.82
2022-09-23T16:25:30.393Z,22.16
2022-09-23T16:30:34.481Z,21.85
2022-09-23T16:35:40.332Z,21.78
2022-09-23T16:40:47.023Z,21.20
2022-09-23T16:45:49.940Z,21.22
2022-09-23T16:50:54.546Z,21.05
2022-09-23T16:55:59.393Z,21.15
2022-09-23T17:01:20.659Z,20.16
2022-09-23T17:06:24.393Z,20.91
2022-09-23T17:11:34.154Z,20.78
2022-09-23T17:16:37.078Z,20.17
2022-09-23T17:21:45.503Z,20.50
2022-09-23T17:26:52.152Z,20.35
2022-09-23T17:31:57.162Z,19.99
2022-09-23T17:36:59.732Z,19.94
2022-09-23T17:42:02.211Z,19.80
2022-09-23T17:47:06.793Z,20.02
2022-09-23T17:52:09.399Z,19.11
2022-09-23T17:57:14.133Z,19.27
2022-09-23T18:02:19.535Z,18.98
2022-09-23T18:07:24.146Z,18.80
2022-09-23T18:12:30.793Z,18.74
2022-09-23T18:17:35.463Z,18.70
2022-09-23T18:22:38.046Z,18.65
2022-09-23T18:27:40.790Z,19.50
2022-09-23T18:32:47.738Z,18.20
2022-09-23T18:38:19.504Z,17.86
2022-09-23T18:43:25.715Z,18.39
2022-09-23T18:48:49.758Z,18.84
2022-09-23T18:53:58.159Z,18.49
2022-09-23T18:59:01.242Z,18.64
2022-09-23T19:04:08.957Z,17.52
2022-09-23T19:09:12.564Z,18.46
2022-09-23T19:14:18.784Z,18.97
2022-09-23T19:19:22.680Z,18.60
2022-09-23T19:24:25.423Z,18.00
2022-09-23T19:29:28.802Z,18.03
2022-09-23T19:34:38.575Z,18.36
2022-09-23T19:39:41.268Z,18.01
2022-09-23T19:44:44.920Z,18.41
2022-09-23T19:49:49.250Z,18.18
2022-09-23T19:54:53.087Z,18.18
2022-09-23T19:59:58.654Z,18.00
2022-09-23T20:05:02.459Z,17.71
2022-09-23T20:10:05.379Z,16.51
2022-09-23T20:15:08.223Z,16.56
2022-09-23T20:20:13.266Z,17.40
2022-09-23T20:25:15.573Z,17.31
2022-09-23T20:30:18.263Z,17.25
2022-09-23T20:35:20.790Z,16.78
2022-09-23T20:40:23.694Z,17.16
2022-09-23T20:45:26.608Z,16.22
2022-09-23T20:50:30.850Z,16.13
2022-09-23T20:55:37.172Z,16.15
2022-09-23T21:00:40.058Z,16.20
2022-09-23T21:05:49.007Z,16.08
2022-09-23T21:10:58.838Z,16.74
2022-09-23T21:16:05.536Z,16.01
2022-09-23T21:21:08.634Z,15.92
2022-09-23T21:26:20.317Z,15.96
2022-09-23T21:31:26.198Z,16.32
2022-09-23T21:36:34.406Z,15.95
2022-09-23T21:41:37.758Z,15.84
2022-09-23T21:46:41.869Z,16.63
2022-09-23T21:51:44.511Z,16.59
2022-09-23T21:56:46.932Z,16.35
2022-09-23T22:01:54.031Z,16.43
2022-09-23T22:06:57.848Z,16.50
2022-09-23T22:12:05.738Z,15.57
2022-09-23T22:17:11.878Z,16.23
2022-09-23T22:22:16.977Z,16.25
2022-09-23T22:27:20.294Z,16.07
2022-09-23T22:32:35.675Z,16.12
2022-09-23T22:37:38.169Z,15.97
2022-09-23T22:42:42.815Z,16.19
2022-09-23T22:47:46.587Z,16.11
2022-09-23T22:52:49.164Z,15.84
2022-09-23T22:57:52.156Z,15.13
2022-09-23T23:02:55.099Z,15.13
2022-09-23T23:07:58.072Z,15.12
2022-09-23T23:13:00.421Z,14.63
2022-09-23T23:18:02.888Z,14.28
2022-09-23T23:23:06.058Z,14.29
2022-09-23T23:28:08.442Z,14.78
2022-09-23T23:33:10.900Z,15.74
2022-09-23T23:38:13.599Z,15.21
2022-09-23T23:43:16.095Z,14.51
2022-09-23T23:48:19.933Z,13.93
2022-09-23T23:53:27.235Z,14.40
2022-09-23T23:58:30.177Z,15.06
